Historique des Minis et Maxis de la station Météo
| Date | Température | Point de rosée | Humidité | Pression | ||||
|---|---|---|---|---|---|---|---|---|
| Mini | Maxi | Mini | Maxi | Mini | Maxi | Mini | Maxi | |
| 13/01/2024 23:59 | -2.7 C° | -0.6 C° | -0,60 C° | -2,70 C° | 100 % | 100 % | 29.68 Hpa | 29.68 Hpa |
| 12/01/2024 23:59 | -4.5 C° | -0.4 C° | -0,40 C° | -4,50 C° | 100 % | 100 % | 29.68 Hpa | 29.68 Hpa |
| 11/01/2024 23:59 | -5.6 C° | 10.0 C° | -0,01 C° | 2,86 C° | 58 % | 100 % | 29.68 Hpa | 29.68 Hpa |
| 10/01/2024 23:59 | -4.1 C° | 5.7 C° | -0,01 C° | 0,56 C° | 68 % | 100 % | 29.68 Hpa | 29.68 Hpa |
| 09/01/2024 23:59 | -6.3 C° | 1.8 C° | -0,26 C° | 0,56 C° | 74 % | 100 % | 29.68 Hpa | 29.68 Hpa |
| 08/01/2024 23:59 | -4.9 C° | -0.4 C° | -0,60 C° | -4,90 C° | 96 % | 100 % | 29.68 Hpa | 29.68 Hpa |
| 07/01/2024 23:59 | -1.1 C° | 4.1 C° | -0,10 C° | 4,10 C° | 100 % | 100 % | 29.68 Hpa | 29.68 Hpa |
| 06/01/2024 23:59 | 3.4 C° | 8.0 C° | 3 C° | 8,00 C° | 100 % | 100 % | 29.68 Hpa | 29.68 Hpa |
| 05/01/2024 23:59 | 3.7 C° | 11.1 C° | 10,00 C° | 9,90 C° | 100 % | 100 % | 29.68 Hpa | 29.68 Hpa |
| 04/01/2024 23:59 | 6.0 C° | 10.6 C° | 10,00 C° | 9,90 C° | 100 % | 100 % | 29.68 Hpa | 29.68 Hpa |
| 03/01/2024 23:59 | 7.5 C° | 12.4 C° | 10,00 C° | 9,90 C° | 100 % | 100 % | 29.68 Hpa | 29.68 Hpa |
| 02/01/2024 23:59 | 6.1 C° | 9.4 C° | 6 C° | 9,40 C° | 100 % | 100 % | 29.68 Hpa | 29.68 Hpa |
| 01/01/2024 23:59 | 5.9 C° | 8.4 C° | 5,90 C° | 8,40 C° | 100 % | 100 % | 29.68 Hpa | 29.68 Hpa |
| 31/12/2023 23:59 | 6.4 C° | 8.59 C° | 6,40 C° | 8,59 C° | 100 % | 100 % | 29.68 Hpa | 1014 Hpa |
| 30/12/2023 23:59 | 7.71 C° | 9.01 C° | 7,71 C° | 9,01 C° | 100 % | 100 % | 1012.01 Hpa | 1014.11 Hpa |
| 29/12/2023 23:59 | 8.4 C° | 10.57 C° | 10,00 C° | 9,99 C° | 100 % | 100 % | 1011.02 Hpa | 1013.67 Hpa |
| 28/12/2023 23:59 | 8.73 C° | 10.51 C° | 10 C° | 9,40 C° | 100 % | 100 % | 1013.53 Hpa | 1014.15 Hpa |
| 27/12/2023 23:59 | 6.93 C° | 10.58 C° | 10,00 C° | 9,99 C° | 100 % | 100 % | 1014.15 Hpa | 1019.24 Hpa |
| 26/12/2023 23:59 | 7.94 C° | 9.46 C° | 7,94 C° | 9,46 C° | 100 % | 100 % | 1010.83 Hpa | 1019.25 Hpa |
| 25/12/2023 23:59 | 8.45 C° | 10.0 C° | 10,00 C° | 9,99 C° | 100 % | 100 % | 1010.64 Hpa | 1013.17 Hpa |